sensor_id;sensor_type;location;lat;lon;timestamp;P1;durP1;ratioP1;P2;durP2;ratioP2
50291;SDS011;36190;54.980;73.388;2023-08-12T00:02:02;3.28;;;2.00;;
50291;SDS011;36190;54.980;73.388;2023-08-12T00:04:30;3.55;;;1.98;;
50291;SDS011;36190;54.980;73.388;2023-08-12T00:06:58;3.83;;;2.20;;
50291;SDS011;36190;54.980;73.388;2023-08-12T00:09:25;3.38;;;1.90;;
50291;SDS011;36190;54.980;73.388;2023-08-12T00:11:53;2.53;;;1.90;;
50291;SDS011;36190;54.980;73.388;2023-08-12T00:14:20;2.88;;;1.80;;
50291;SDS011;36190;54.980;73.388;2023-08-12T00:16:48;4.78;;;2.13;;
50291;SDS011;36190;54.980;73.388;2023-08-12T00:19:17;4.60;;;2.00;;
50291;SDS011;36190;54.980;73.388;2023-08-12T00:21:44;4.25;;;2.20;;
50291;SDS011;36190;54.980;73.388;2023-08-12T00:24:11;4.38;;;1.98;;
50291;SDS011;36190;54.980;73.388;2023-08-12T00:26:39;3.53;;;2.00;;
50291;SDS011;36190;54.980;73.388;2023-08-12T00:29:07;2.75;;;1.80;;
50291;SDS011;36190;54.980;73.388;2023-08-12T00:31:34;4.70;;;2.10;;
50291;SDS011;36190;54.980;73.388;2023-08-12T00:34:02;2.50;;;1.90;;
50291;SDS011;36190;54.980;73.388;2023-08-12T00:36:31;4.15;;;2.03;;
50291;SDS011;36190;54.980;73.388;2023-08-12T00:38:59;3.72;;;1.90;;
50291;SDS011;36190;54.980;73.388;2023-08-12T00:41:26;4.15;;;1.90;;
50291;SDS011;36190;54.980;73.388;2023-08-12T00:43:54;3.83;;;2.00;;
50291;SDS011;36190;54.980;73.388;2023-08-12T00:46:21;3.13;;;1.90;;
50291;SDS011;36190;54.980;73.388;2023-08-12T00:48:49;3.47;;;1.98;;
50291;SDS011;36190;54.980;73.388;2023-08-12T00:51:17;3.78;;;2.10;;
50291;SDS011;36190;54.980;73.388;2023-08-12T00:53:46;3.38;;;2.20;;
50291;SDS011;36190;54.980;73.388;2023-08-12T00:56:13;5.70;;;2.58;;
50291;SDS011;36190;54.980;73.388;2023-08-12T00:58:41;4.35;;;2.58;;
50291;SDS011;36190;54.980;73.388;2023-08-12T01:01:09;5.00;;;2.53;;
50291;SDS011;36190;54.980;73.388;2023-08-12T01:03:38;4.45;;;2.33;;
50291;SDS011;36190;54.980;73.388;2023-08-12T01:06:06;5.28;;;2.40;;
50291;SDS011;36190;54.980;73.388;2023-08-12T01:08:34;3.38;;;2.08;;
50291;SDS011;36190;54.980;73.388;2023-08-12T01:11:05;6.82;;;2.60;;
50291;SDS011;36190;54.980;73.388;2023-08-12T01:13:42;4.88;;;2.70;;
50291;SDS011;36190;54.980;73.388;2023-08-12T01:16:14;5.50;;;2.55;;
50291;SDS011;36190;54.980;73.388;2023-08-12T01:18:44;5.88;;;2.80;;
50291;SDS011;36190;54.980;73.388;2023-08-12T01:21:15;6.68;;;2.67;;
50291;SDS011;36190;54.980;73.388;2023-08-12T01:23:45;6.45;;;2.67;;
50291;SDS011;36190;54.980;73.388;2023-08-12T01:26:14;6.05;;;2.90;;
50291;SDS011;36190;54.980;73.388;2023-08-12T01:28:41;8.50;;;3.38;;
50291;SDS011;36190;54.980;73.388;2023-08-12T01:31:10;6.55;;;3.17;;
50291;SDS011;36190;54.980;73.388;2023-08-12T01:33:42;8.93;;;3.67;;
50291;SDS011;36190;54.980;73.388;2023-08-12T01:36:18;6.55;;;3.20;;
50291;SDS011;36190;54.980;73.388;2023-08-12T01:38:48;8.95;;;3.25;;
50291;SDS011;36190;54.980;73.388;2023-08-12T01:41:18;6.50;;;3.17;;
50291;SDS011;36190;54.980;73.388;2023-08-12T01:43:47;7.65;;;3.65;;
50291;SDS011;36190;54.980;73.388;2023-08-12T01:46:15;7.53;;;3.30;;
50291;SDS011;36190;54.980;73.388;2023-08-12T01:48:43;7.05;;;3.17;;
50291;SDS011;36190;54.980;73.388;2023-08-12T01:51:10;5.82;;;3.15;;
50291;SDS011;36190;54.980;73.388;2023-08-12T01:53:38;7.85;;;3.38;;
50291;SDS011;36190;54.980;73.388;2023-08-12T01:56:07;8.20;;;3.70;;
50291;SDS011;36190;54.980;73.388;2023-08-12T01:58:35;7.97;;;3.80;;
50291;SDS011;36190;54.980;73.388;2023-08-12T02:01:02;7.13;;;3.03;;
50291;SDS011;36190;54.980;73.388;2023-08-12T02:03:30;7.30;;;3.20;;
50291;SDS011;36190;54.980;73.388;2023-08-12T02:05:57;6.50;;;3.10;;
50291;SDS011;36190;54.980;73.388;2023-08-12T02:08:24;6.82;;;3.30;;
50291;SDS011;36190;54.980;73.388;2023-08-12T02:10:52;6.70;;;3.00;;
50291;SDS011;36190;54.980;73.388;2023-08-12T02:13:21;5.30;;;2.80;;
50291;SDS011;36190;54.980;73.388;2023-08-12T02:15:48;6.45;;;3.17;;
50291;SDS011;36190;54.980;73.388;2023-08-12T02:18:16;6.25;;;2.90;;
50291;SDS011;36190;54.980;73.388;2023-08-12T02:20:43;6.97;;;3.20;;
50291;SDS011;36190;54.980;73.388;2023-08-12T02:23:13;7.90;;;3.17;;
50291;SDS011;36190;54.980;73.388;2023-08-12T02:25:41;5.55;;;2.80;;
50291;SDS011;36190;54.980;73.388;2023-08-12T02:28:08;5.25;;;2.95;;
50291;SDS011;36190;54.980;73.388;2023-08-12T02:30:37;7.60;;;3.00;;
50291;SDS011;36190;54.980;73.388;2023-08-12T02:33:05;6.75;;;3.05;;
50291;SDS011;36190;54.980;73.388;2023-08-12T02:35:32;8.00;;;3.15;;
50291;SDS011;36190;54.980;73.388;2023-08-12T02:38:00;7.88;;;3.05;;
50291;SDS011;36190;54.980;73.388;2023-08-12T02:40:27;6.38;;;2.95;;
50291;SDS011;36190;54.980;73.388;2023-08-12T02:42:55;6.65;;;3.00;;
50291;SDS011;36190;54.980;73.388;2023-08-12T02:45:22;7.20;;;3.28;;
50291;SDS011;36190;54.980;73.388;2023-08-12T02:47:51;7.25;;;3.33;;
50291;SDS011;36190;54.980;73.388;2023-08-12T02:50:19;9.93;;;3.20;;
50291;SDS011;36190;54.980;73.388;2023-08-12T02:52:46;5.68;;;2.88;;
50291;SDS011;36190;54.980;73.388;2023-08-12T02:55:14;6.63;;;3.17;;
50291;SDS011;36190;54.980;73.388;2023-08-12T02:57:41;8.00;;;3.30;;
50291;SDS011;36190;54.980;73.388;2023-08-12T03:00:09;7.88;;;3.60;;
50291;SDS011;36190;54.980;73.388;2023-08-12T03:02:38;8.07;;;3.85;;
50291;SDS011;36190;54.980;73.388;2023-08-12T03:05:10;9.48;;;3.67;;
50291;SDS011;36190;54.980;73.388;2023-08-12T03:07:37;7.97;;;3.78;;
50291;SDS011;36190;54.980;73.388;2023-08-12T03:10:05;5.32;;;2.88;;
50291;SDS011;36190;54.980;73.388;2023-08-12T03:12:33;6.85;;;3.03;;
50291;SDS011;36190;54.980;73.388;2023-08-12T03:15:01;10.13;;;3.75;;
50291;SDS011;36190;54.980;73.388;2023-08-12T03:17:30;7.57;;;3.50;;
50291;SDS011;36190;54.980;73.388;2023-08-12T03:19:57;8.27;;;3.45;;
50291;SDS011;36190;54.980;73.388;2023-08-12T03:22:27;7.53;;;3.60;;
50291;SDS011;36190;54.980;73.388;2023-08-12T03:24:54;7.72;;;2.85;;
50291;SDS011;36190;54.980;73.388;2023-08-12T03:27:22;8.20;;;2.85;;
50291;SDS011;36190;54.980;73.388;2023-08-12T03:29:49;7.50;;;3.03;;
50291;SDS011;36190;54.980;73.388;2023-08-12T03:32:17;5.70;;;2.70;;
50291;SDS011;36190;54.980;73.388;2023-08-12T03:34:45;7.10;;;3.28;;
50291;SDS011;36190;54.980;73.388;2023-08-12T03:37:12;7.68;;;3.20;;
50291;SDS011;36190;54.980;73.388;2023-08-12T03:39:41;7.28;;;3.00;;
50291;SDS011;36190;54.980;73.388;2023-08-12T03:42:09;8.55;;;3.08;;
50291;SDS011;36190;54.980;73.388;2023-08-12T03:44:36;5.63;;;2.78;;
50291;SDS011;36190;54.980;73.388;2023-08-12T03:47:04;4.50;;;2.40;;
50291;SDS011;36190;54.980;73.388;2023-08-12T03:49:31;5.53;;;2.50;;
50291;SDS011;36190;54.980;73.388;2023-08-12T03:51:59;5.60;;;2.88;;
50291;SDS011;36190;54.980;73.388;2023-08-12T03:54:27;5.35;;;2.58;;
50291;SDS011;36190;54.980;73.388;2023-08-12T03:56:56;7.10;;;3.10;;
50291;SDS011;36190;54.980;73.388;2023-08-12T03:59:23;4.13;;;2.10;;
50291;SDS011;36190;54.980;73.388;2023-08-12T04:01:51;8.02;;;2.70;;
50291;SDS011;36190;54.980;73.388;2023-08-12T04:04:18;4.82;;;2.40;;
50291;SDS011;36190;54.980;73.388;2023-08-12T04:06:46;5.85;;;2.40;;
50291;SDS011;36190;54.980;73.388;2023-08-12T04:09:16;7.43;;;2.75;;
50291;SDS011;36190;54.980;73.388;2023-08-12T04:11:44;12.85;;;2.80;;
50291;SDS011;36190;54.980;73.388;2023-08-12T04:14:14;7.15;;;2.55;;
50291;SDS011;36190;54.980;73.388;2023-08-12T04:16:41;8.48;;;2.80;;
50291;SDS011;36190;54.980;73.388;2023-08-12T04:19:09;5.80;;;2.20;;
50291;SDS011;36190;54.980;73.388;2023-08-12T04:21:36;5.60;;;2.05;;
50291;SDS011;36190;54.980;73.388;2023-08-12T04:24:04;5.32;;;2.15;;
50291;SDS011;36190;54.980;73.388;2023-08-12T04:26:32;7.45;;;2.35;;
50291;SDS011;36190;54.980;73.388;2023-08-12T04:29:00;8.85;;;2.45;;
50291;SDS011;36190;54.980;73.388;2023-08-12T04:31:28;5.53;;;2.63;;
50291;SDS011;36190;54.980;73.388;2023-08-12T04:33:56;4.60;;;2.22;;
50291;SDS011;36190;54.980;73.388;2023-08-12T04:36:23;8.88;;;2.42;;
50291;SDS011;36190;54.980;73.388;2023-08-12T04:38:51;7.65;;;2.50;;
50291;SDS011;36190;54.980;73.388;2023-08-12T04:41:18;10.90;;;2.80;;
50291;SDS011;36190;54.980;73.388;2023-08-12T04:43:46;4.28;;;2.03;;
50291;SDS011;36190;54.980;73.388;2023-08-12T04:46:13;15.90;;;2.88;;
50291;SDS011;36190;54.980;73.388;2023-08-12T04:48:42;7.85;;;2.33;;
50291;SDS011;36190;54.980;73.388;2023-08-12T04:51:11;9.85;;;2.80;;
50291;SDS011;36190;54.980;73.388;2023-08-12T04:53:39;4.75;;;2.20;;
50291;SDS011;36190;54.980;73.388;2023-08-12T04:56:07;8.90;;;2.47;;
50291;SDS011;36190;54.980;73.388;2023-08-12T04:58:34;7.35;;;2.50;;
50291;SDS011;36190;54.980;73.388;2023-08-12T05:01:02;6.35;;;2.00;;
50291;SDS011;36190;54.980;73.388;2023-08-12T05:03:29;6.03;;;2.38;;
50291;SDS011;36190;54.980;73.388;2023-08-12T05:05:58;5.32;;;2.50;;
50291;SDS011;36190;54.980;73.388;2023-08-12T05:08:26;5.88;;;2.10;;
50291;SDS011;36190;54.980;73.388;2023-08-12T05:10:53;7.13;;;2.22;;
50291;SDS011;36190;54.980;73.388;2023-08-12T05:13:21;8.02;;;2.70;;
50291;SDS011;36190;54.980;73.388;2023-08-12T05:15:49;9.20;;;2.40;;
50291;SDS011;36190;54.980;73.388;2023-08-12T05:18:16;5.20;;;2.08;;
50291;SDS011;36190;54.980;73.388;2023-08-12T05:20:44;5.65;;;2.30;;
50291;SDS011;36190;54.980;73.388;2023-08-12T05:23:13;4.57;;;2.08;;
50291;SDS011;36190;54.980;73.388;2023-08-12T05:25:40;7.30;;;2.30;;
50291;SDS011;36190;54.980;73.388;2023-08-12T05:28:08;4.30;;;2.10;;
50291;SDS011;36190;54.980;73.388;2023-08-12T05:30:35;6.30;;;2.10;;
50291;SDS011;36190;54.980;73.388;2023-08-12T05:33:04;4.88;;;2.10;;
50291;SDS011;36190;54.980;73.388;2023-08-12T05:35:32;5.60;;;2.47;;
50291;SDS011;36190;54.980;73.388;2023-08-12T05:38:00;6.78;;;2.30;;
50291;SDS011;36190;54.980;73.388;2023-08-12T05:40:29;6.88;;;2.22;;
50291;SDS011;36190;54.980;73.388;2023-08-12T05:42:56;6.22;;;2.22;;
50291;SDS011;36190;54.980;73.388;2023-08-12T05:45:24;6.82;;;2.60;;
50291;SDS011;36190;54.980;73.388;2023-08-12T05:47:51;4.60;;;2.10;;
50291;SDS011;36190;54.980;73.388;2023-08-12T05:50:19;8.52;;;2.58;;
50291;SDS011;36190;54.980;73.388;2023-08-12T05:52:46;6.28;;;2.45;;
50291;SDS011;36190;54.980;73.388;2023-08-12T05:55:14;4.63;;;2.15;;
50291;SDS011;36190;54.980;73.388;2023-08-12T05:57:43;6.30;;;2.42;;
50291;SDS011;36190;54.980;73.388;2023-08-12T06:00:11;20.27;;;2.95;;
50291;SDS011;36190;54.980;73.388;2023-08-12T06:02:38;11.50;;;3.00;;
50291;SDS011;36190;54.980;73.388;2023-08-12T06:05:06;7.82;;;2.35;;
50291;SDS011;36190;54.980;73.388;2023-08-12T06:07:34;5.30;;;2.38;;
50291;SDS011;36190;54.980;73.388;2023-08-12T06:10:02;6.28;;;2.63;;
50291;SDS011;36190;54.980;73.388;2023-08-12T06:12:30;9.02;;;2.72;;
50291;SDS011;36190;54.980;73.388;2023-08-12T06:15:00;8.93;;;2.47;;
50291;SDS011;36190;54.980;73.388;2023-08-12T06:17:27;8.15;;;2.28;;
50291;SDS011;36190;54.980;73.388;2023-08-12T06:19:55;5.40;;;2.30;;
50291;SDS011;36190;54.980;73.388;2023-08-12T06:22:22;5.90;;;2.22;;
50291;SDS011;36190;54.980;73.388;2023-08-12T06:24:50;7.75;;;2.60;;
50291;SDS011;36190;54.980;73.388;2023-08-12T06:27:17;5.53;;;2.33;;
50291;SDS011;36190;54.980;73.388;2023-08-12T06:29:46;4.82;;;2.17;;
50291;SDS011;36190;54.980;73.388;2023-08-12T06:32:15;6.82;;;2.88;;
50291;SDS011;36190;54.980;73.388;2023-08-12T06:34:42;4.50;;;2.13;;
50291;SDS011;36190;54.980;73.388;2023-08-12T06:37:10;5.13;;;2.22;;
50291;SDS011;36190;54.980;73.388;2023-08-12T06:39:37;6.47;;;2.25;;
50291;SDS011;36190;54.980;73.388;2023-08-12T06:42:05;3.25;;;1.70;;
50291;SDS011;36190;54.980;73.388;2023-08-12T06:44:33;4.95;;;2.00;;
50291;SDS011;36190;54.980;73.388;2023-08-12T06:47:00;8.23;;;2.50;;
50291;SDS011;36190;54.980;73.388;2023-08-12T06:49:29;7.35;;;2.70;;
50291;SDS011;36190;54.980;73.388;2023-08-12T06:51:57;7.28;;;2.30;;
50291;SDS011;36190;54.980;73.388;2023-08-12T06:54:24;6.13;;;2.40;;
50291;SDS011;36190;54.980;73.388;2023-08-12T06:56:52;4.88;;;2.40;;
50291;SDS011;36190;54.980;73.388;2023-08-12T06:59:19;6.07;;;2.40;;
50291;SDS011;36190;54.980;73.388;2023-08-12T07:01:46;5.18;;;2.20;;
50291;SDS011;36190;54.980;73.388;2023-08-12T07:04:14;4.30;;;2.20;;
50291;SDS011;36190;54.980;73.388;2023-08-12T07:06:43;6.22;;;2.50;;
50291;SDS011;36190;54.980;73.388;2023-08-12T07:09:10;8.98;;;2.50;;
50291;SDS011;36190;54.980;73.388;2023-08-12T07:11:38;5.15;;;2.40;;
50291;SDS011;36190;54.980;73.388;2023-08-12T07:14:05;6.22;;;2.50;;
50291;SDS011;36190;54.980;73.388;2023-08-12T07:16:33;7.95;;;2.55;;
50291;SDS011;36190;54.980;73.388;2023-08-12T07:19:00;5.47;;;2.17;;
50291;SDS011;36190;54.980;73.388;2023-08-12T07:21:28;6.82;;;2.90;;
50291;SDS011;36190;54.980;73.388;2023-08-12T07:23:57;4.88;;;2.40;;
50291;SDS011;36190;54.980;73.388;2023-08-12T07:26:25;6.72;;;2.35;;
50291;SDS011;36190;54.980;73.388;2023-08-12T07:28:52;4.47;;;2.28;;
50291;SDS011;36190;54.980;73.388;2023-08-12T07:31:20;5.07;;;2.42;;
50291;SDS011;36190;54.980;73.388;2023-08-12T07:33:47;6.72;;;2.20;;
50291;SDS011;36190;54.980;73.388;2023-08-12T07:36:15;7.13;;;2.50;;
50291;SDS011;36190;54.980;73.388;2023-08-12T07:38:42;9.05;;;2.85;;
50291;SDS011;36190;54.980;73.388;2023-08-12T07:41:11;7.68;;;2.95;;
50291;SDS011;36190;54.980;73.388;2023-08-12T07:43:39;4.75;;;2.05;;
50291;SDS011;36190;54.980;73.388;2023-08-12T07:46:06;5.90;;;2.10;;
50291;SDS011;36190;54.980;73.388;2023-08-12T07:48:34;5.55;;;2.33;;
50291;SDS011;36190;54.980;73.388;2023-08-12T07:51:01;3.80;;;2.05;;
50291;SDS011;36190;54.980;73.388;2023-08-12T07:53:29;8.52;;;2.25;;
50291;SDS011;36190;54.980;73.388;2023-08-12T07:55:56;7.22;;;2.47;;
50291;SDS011;36190;54.980;73.388;2023-08-12T07:58:25;9.95;;;3.10;;
50291;SDS011;36190;54.980;73.388;2023-08-12T08:00:53;7.13;;;3.20;;
50291;SDS011;36190;54.980;73.388;2023-08-12T08:03:21;7.35;;;2.47;;
50291;SDS011;36190;54.980;73.388;2023-08-12T08:05:48;6.68;;;2.45;;
50291;SDS011;36190;54.980;73.388;2023-08-12T08:08:16;6.85;;;2.40;;
50291;SDS011;36190;54.980;73.388;2023-08-12T08:10:43;5.82;;;2.50;;
50291;SDS011;36190;54.980;73.388;2023-08-12T08:13:11;6.78;;;2.28;;
50291;SDS011;36190;54.980;73.388;2023-08-12T08:15:40;8.20;;;2.50;;
50291;SDS011;36190;54.980;73.388;2023-08-12T08:18:07;7.75;;;2.58;;
50291;SDS011;36190;54.980;73.388;2023-08-12T08:20:35;5.22;;;2.25;;
50291;SDS011;36190;54.980;73.388;2023-08-12T08:23:03;9.00;;;2.40;;
50291;SDS011;36190;54.980;73.388;2023-08-12T08:25:31;7.70;;;2.58;;
50291;SDS011;36190;54.980;73.388;2023-08-12T08:27:58;10.20;;;3.05;;
50291;SDS011;36190;54.980;73.388;2023-08-12T08:30:26;6.25;;;2.60;;
50291;SDS011;36190;54.980;73.388;2023-08-12T08:32:55;8.80;;;2.67;;
50291;SDS011;36190;54.980;73.388;2023-08-12T08:35:22;7.25;;;2.80;;
50291;SDS011;36190;54.980;73.388;2023-08-12T08:37:50;7.97;;;2.53;;
50291;SDS011;36190;54.980;73.388;2023-08-12T08:40:17;6.57;;;2.35;;
50291;SDS011;36190;54.980;73.388;2023-08-12T08:42:45;10.90;;;2.70;;
50291;SDS011;36190;54.980;73.388;2023-08-12T08:45:18;7.83;;;2.40;;
50291;SDS011;36190;54.980;73.388;2023-08-12T08:47:47;9.30;;;2.78;;
50291;SDS011;36190;54.980;73.388;2023-08-12T08:50:17;9.82;;;2.60;;
50291;SDS011;36190;54.980;73.388;2023-08-12T08:52:45;8.05;;;2.70;;
50291;SDS011;36190;54.980;73.388;2023-08-12T08:55:14;7.32;;;2.38;;
50291;SDS011;36190;54.980;73.388;2023-08-12T08:57:43;9.82;;;2.58;;
50291;SDS011;36190;54.980;73.388;2023-08-12T09:00:11;6.47;;;2.67;;
50291;SDS011;36190;54.980;73.388;2023-08-12T09:02:39;11.65;;;3.00;;
50291;SDS011;36190;54.980;73.388;2023-08-12T09:05:09;7.30;;;2.70;;
50291;SDS011;36190;54.980;73.388;2023-08-12T09:07:41;9.48;;;2.70;;
50291;SDS011;36190;54.980;73.388;2023-08-12T09:10:09;11.57;;;2.88;;
50291;SDS011;36190;54.980;73.388;2023-08-12T09:12:37;6.07;;;2.00;;
50291;SDS011;36190;54.980;73.388;2023-08-12T09:15:06;7.93;;;2.10;;
50291;SDS011;36190;54.980;73.388;2023-08-12T09:17:34;5.78;;;2.40;;
50291;SDS011;36190;54.980;73.388;2023-08-12T09:20:02;9.25;;;2.03;;
50291;SDS011;36190;54.980;73.388;2023-08-12T09:22:33;9.10;;;2.10;;
50291;SDS011;36190;54.980;73.388;2023-08-12T09:25:03;10.02;;;2.38;;
50291;SDS011;36190;54.980;73.388;2023-08-12T09:27:31;7.60;;;2.47;;
50291;SDS011;36190;54.980;73.388;2023-08-12T09:29:58;7.85;;;2.47;;
50291;SDS011;36190;54.980;73.388;2023-08-12T09:32:30;8.18;;;2.00;;
50291;SDS011;36190;54.980;73.388;2023-08-12T09:34:59;7.75;;;2.55;;
50291;SDS011;36190;54.980;73.388;2023-08-12T09:37:30;6.90;;;2.28;;
50291;SDS011;36190;54.980;73.388;2023-08-12T09:39:58;8.05;;;2.72;;
50291;SDS011;36190;54.980;73.388;2023-08-12T09:42:27;8.95;;;2.55;;
50291;SDS011;36190;54.980;73.388;2023-08-12T09:44:56;7.68;;;2.72;;
50291;SDS011;36190;54.980;73.388;2023-08-12T09:47:25;8.60;;;2.53;;
50291;SDS011;36190;54.980;73.388;2023-08-12T09:49:52;6.97;;;2.50;;
50291;SDS011;36190;54.980;73.388;2023-08-12T09:52:22;14.57;;;3.53;;
50291;SDS011;36190;54.980;73.388;2023-08-12T09:54:49;11.15;;;2.92;;
50291;SDS011;36190;54.980;73.388;2023-08-12T09:57:19;9.52;;;2.33;;
50291;SDS011;36190;54.980;73.388;2023-08-12T09:59:53;11.45;;;2.47;;
50291;SDS011;36190;54.980;73.388;2023-08-12T10:02:23;8.20;;;2.53;;
50291;SDS011;36190;54.980;73.388;2023-08-12T10:04:51;9.93;;;2.80;;
50291;SDS011;36190;54.980;73.388;2023-08-12T10:07:22;7.28;;;2.67;;
50291;SDS011;36190;54.980;73.388;2023-08-12T10:09:50;6.80;;;2.42;;
50291;SDS011;36190;54.980;73.388;2023-08-12T10:12:17;6.72;;;2.50;;
50291;SDS011;36190;54.980;73.388;2023-08-12T10:14:46;7.10;;;2.67;;
50291;SDS011;36190;54.980;73.388;2023-08-12T10:17:15;7.45;;;2.42;;
50291;SDS011;36190;54.980;73.388;2023-08-12T10:19:44;10.18;;;2.75;;
50291;SDS011;36190;54.980;73.388;2023-08-12T10:22:12;14.25;;;2.88;;
50291;SDS011;36190;54.980;73.388;2023-08-12T10:24:40;7.95;;;2.60;;
50291;SDS011;36190;54.980;73.388;2023-08-12T10:27:09;6.35;;;2.50;;
50291;SDS011;36190;54.980;73.388;2023-08-12T10:29:38;11.50;;;2.38;;
50291;SDS011;36190;54.980;73.388;2023-08-12T10:32:05;7.18;;;2.20;;
50291;SDS011;36190;54.980;73.388;2023-08-12T10:34:36;6.43;;;2.20;;
50291;SDS011;36190;54.980;73.388;2023-08-12T10:37:04;9.77;;;2.60;;
50291;SDS011;36190;54.980;73.388;2023-08-12T10:39:32;8.65;;;2.60;;
50291;SDS011;36190;54.980;73.388;2023-08-12T10:42:00;6.13;;;2.40;;
50291;SDS011;36190;54.980;73.388;2023-08-12T10:44:37;12.52;;;3.28;;
50291;SDS011;36190;54.980;73.388;2023-08-12T10:47:07;11.88;;;2.83;;
50291;SDS011;36190;54.980;73.388;2023-08-12T10:49:39;10.13;;;3.35;;
50291;SDS011;36190;54.980;73.388;2023-08-12T10:52:19;9.18;;;3.30;;
50291;SDS011;36190;54.980;73.388;2023-08-12T10:54:54;8.48;;;2.97;;
50291;SDS011;36190;54.980;73.388;2023-08-12T10:57:34;12.48;;;3.60;;
50291;SDS011;36190;54.980;73.388;2023-08-12T11:00:04;8.63;;;2.70;;
50291;SDS011;36190;54.980;73.388;2023-08-12T11:02:33;6.50;;;2.45;;
50291;SDS011;36190;54.980;73.388;2023-08-12T11:05:03;9.00;;;3.20;;
50291;SDS011;36190;54.980;73.388;2023-08-12T11:07:34;10.65;;;3.85;;
50291;SDS011;36190;54.980;73.388;2023-08-12T11:10:05;11.43;;;3.70;;
50291;SDS011;36190;54.980;73.388;2023-08-12T11:12:37;12.65;;;3.85;;
50291;SDS011;36190;54.980;73.388;2023-08-12T11:15:06;10.40;;;3.60;;
50291;SDS011;36190;54.980;73.388;2023-08-12T11:17:34;9.75;;;3.60;;
50291;SDS011;36190;54.980;73.388;2023-08-12T11:20:05;9.05;;;3.50;;
50291;SDS011;36190;54.980;73.388;2023-08-12T11:22:35;8.40;;;3.33;;
50291;SDS011;36190;54.980;73.388;2023-08-12T11:25:04;8.02;;;3.08;;
50291;SDS011;36190;54.980;73.388;2023-08-12T11:27:37;7.82;;;3.20;;
50291;SDS011;36190;54.980;73.388;2023-08-12T11:30:06;12.70;;;3.53;;
50291;SDS011;36190;54.980;73.388;2023-08-12T11:32:35;9.88;;;3.38;;
50291;SDS011;36190;54.980;73.388;2023-08-12T11:35:06;7.45;;;3.15;;
50291;SDS011;36190;54.980;73.388;2023-08-12T11:37:36;10.82;;;2.65;;
50291;SDS011;36190;54.980;73.388;2023-08-12T11:40:04;10.13;;;2.60;;
50291;SDS011;36190;54.980;73.388;2023-08-12T11:42:34;9.00;;;2.83;;
50291;SDS011;36190;54.980;73.388;2023-08-12T11:45:02;11.23;;;3.13;;
50291;SDS011;36190;54.980;73.388;2023-08-12T11:47:30;11.15;;;3.05;;
50291;SDS011;36190;54.980;73.388;2023-08-12T11:49:57;9.20;;;3.97;;
50291;SDS011;36190;54.980;73.388;2023-08-12T11:52:26;11.38;;;3.42;;
50291;SDS011;36190;54.980;73.388;2023-08-12T11:54:54;11.25;;;3.50;;
50291;SDS011;36190;54.980;73.388;2023-08-12T11:57:22;8.80;;;3.10;;
50291;SDS011;36190;54.980;73.388;2023-08-12T11:59:49;8.65;;;3.42;;
50291;SDS011;36190;54.980;73.388;2023-08-12T12:02:17;15.02;;;4.57;;
50291;SDS011;36190;54.980;73.388;2023-08-12T12:04:45;14.52;;;4.85;;
50291;SDS011;36190;54.980;73.388;2023-08-12T12:07:19;9.20;;;3.78;;
50291;SDS011;36190;54.980;73.388;2023-08-12T12:09:51;13.90;;;3.90;;
50291;SDS011;36190;54.980;73.388;2023-08-12T12:12:21;10.65;;;3.15;;
50291;SDS011;36190;54.980;73.388;2023-08-12T12:14:50;9.02;;;3.13;;
50291;SDS011;36190;54.980;73.388;2023-08-12T12:17:20;12.05;;;3.65;;
50291;SDS011;36190;54.980;73.388;2023-08-12T12:19:54;8.40;;;3.10;;
50291;SDS011;36190;54.980;73.388;2023-08-12T12:22:26;9.35;;;3.42;;
50291;SDS011;36190;54.980;73.388;2023-08-12T12:24:57;8.25;;;2.85;;
50291;SDS011;36190;54.980;73.388;2023-08-12T12:27:25;7.13;;;2.65;;
50291;SDS011;36190;54.980;73.388;2023-08-12T12:29:53;8.25;;;2.72;;
50291;SDS011;36190;54.980;73.388;2023-08-12T12:32:21;11.57;;;3.72;;
50291;SDS011;36190;54.980;73.388;2023-08-12T12:34:48;13.15;;;4.10;;
50291;SDS011;36190;54.980;73.388;2023-08-12T12:37:16;8.93;;;3.42;;
50291;SDS011;36190;54.980;73.388;2023-08-12T12:39:43;15.00;;;4.40;;
50291;SDS011;36190;54.980;73.388;2023-08-12T12:42:12;10.13;;;3.88;;
50291;SDS011;36190;54.980;73.388;2023-08-12T12:44:40;12.93;;;3.80;;
50291;SDS011;36190;54.980;73.388;2023-08-12T12:47:07;11.63;;;3.55;;
50291;SDS011;36190;54.980;73.388;2023-08-12T12:49:36;13.82;;;3.00;;
50291;SDS011;36190;54.980;73.388;2023-08-12T12:52:03;11.20;;;3.00;;
50291;SDS011;36190;54.980;73.388;2023-08-12T12:54:31;10.23;;;2.88;;
50291;SDS011;36190;54.980;73.388;2023-08-12T12:56:59;8.43;;;2.92;;
50291;SDS011;36190;54.980;73.388;2023-08-12T12:59:28;10.88;;;3.28;;
50291;SDS011;36190;54.980;73.388;2023-08-12T13:01:55;10.77;;;3.67;;
50291;SDS011;36190;54.980;73.388;2023-08-12T13:04:23;16.08;;;3.80;;
50291;SDS011;36190;54.980;73.388;2023-08-12T13:06:50;9.48;;;3.58;;
50291;SDS011;36190;54.980;73.388;2023-08-12T13:09:18;11.57;;;3.42;;
50291;SDS011;36190;54.980;73.388;2023-08-12T13:11:45;7.50;;;3.30;;
50291;SDS011;36190;54.980;73.388;2023-08-12T13:14:13;9.48;;;3.25;;
50291;SDS011;36190;54.980;73.388;2023-08-12T13:16:43;12.48;;;3.90;;
50291;SDS011;36190;54.980;73.388;2023-08-12T13:19:11;13.15;;;4.28;;
50291;SDS011;36190;54.980;73.388;2023-08-12T13:21:38;10.63;;;4.10;;
50291;SDS011;36190;54.980;73.388;2023-08-12T13:24:06;10.63;;;3.88;;
50291;SDS011;36190;54.980;73.388;2023-08-12T13:26:33;12.75;;;4.82;;
50291;SDS011;36190;54.980;73.388;2023-08-12T13:29:01;15.68;;;4.72;;
50291;SDS011;36190;54.980;73.388;2023-08-12T13:31:29;9.90;;;4.13;;
50291;SDS011;36190;54.980;73.388;2023-08-12T13:33:58;12.20;;;4.93;;
50291;SDS011;36190;54.980;73.388;2023-08-12T13:36:25;14.40;;;5.38;;
50291;SDS011;36190;54.980;73.388;2023-08-12T13:38:53;12.98;;;4.40;;
50291;SDS011;36190;54.980;73.388;2023-08-12T13:41:20;10.70;;;3.90;;
50291;SDS011;36190;54.980;73.388;2023-08-12T13:43:48;10.65;;;3.92;;
50291;SDS011;36190;54.980;73.388;2023-08-12T13:46:15;9.50;;;3.65;;
50291;SDS011;36190;54.980;73.388;2023-08-12T13:48:43;11.20;;;3.88;;
50291;SDS011;36190;54.980;73.388;2023-08-12T13:51:12;9.20;;;3.83;;
50291;SDS011;36190;54.980;73.388;2023-08-12T13:53:40;11.82;;;4.40;;
50291;SDS011;36190;54.980;73.388;2023-08-12T13:56:07;12.45;;;4.63;;
50291;SDS011;36190;54.980;73.388;2023-08-12T13:58:34;10.75;;;4.97;;
50291;SDS011;36190;54.980;73.388;2023-08-12T14:01:02;14.93;;;5.88;;
50291;SDS011;36190;54.980;73.388;2023-08-12T14:03:29;13.02;;;5.97;;
50291;SDS011;36190;54.980;73.388;2023-08-12T14:05:57;14.32;;;6.10;;
50291;SDS011;36190;54.980;73.388;2023-08-12T14:08:26;11.55;;;5.80;;
50291;SDS011;36190;54.980;73.388;2023-08-12T14:10:53;13.82;;;4.78;;
50291;SDS011;36190;54.980;73.388;2023-08-12T14:13:21;11.60;;;4.82;;
50291;SDS011;36190;54.980;73.388;2023-08-12T14:15:48;12.48;;;5.10;;
50291;SDS011;36190;54.980;73.388;2023-08-12T14:18:16;13.35;;;4.97;;
50291;SDS011;36190;54.980;73.388;2023-08-12T14:20:43;17.90;;;6.03;;
50291;SDS011;36190;54.980;73.388;2023-08-12T14:23:11;12.82;;;4.68;;
50291;SDS011;36190;54.980;73.388;2023-08-12T14:25:40;15.68;;;5.60;;
50291;SDS011;36190;54.980;73.388;2023-08-12T14:28:07;11.73;;;4.80;;
50291;SDS011;36190;54.980;73.388;2023-08-12T14:30:35;10.55;;;5.00;;
50291;SDS011;36190;54.980;73.388;2023-08-12T14:33:04;12.07;;;3.80;;
50291;SDS011;36190;54.980;73.388;2023-08-12T14:35:32;11.60;;;4.13;;
50291;SDS011;36190;54.980;73.388;2023-08-12T14:38:01;11.00;;;4.35;;